Portada
METAR-TAF:

METAR-TAF

Aeropuertos :

Boscobel Airport

Boscobel, Wisconsin, Estados Unidos

latitud: 43-09-22N, longitud: 090-40-39W, altitud: 205 m

Observación

El informe se hizo hace 22 minutos, a las 07:53 UTC
Viento 3 kt del noreste
Temperatura 6°C
Humedad 87%
Presión 1026 hPa
Visibilidad: 16.1 km
Cielo despejado

METAR: KOVS 310753Z AUTO 05003KT 10SM CLR 06/04 A3030 RMK AO2 SLP264 T00610044

Hora: 03:15 (08:15 UTC)


TAF: falta

Observaciones y pronósticos meteorológicos de más de 4000 aeropuertos (mensajes METAR y TAF).

Los puntos amarillos y rojos representan las estaciones disponibles.

Ponga el ratón en el punto deseado para ver el nombre de la estación.

Haga clic para ver las observaciones y los pronósticos meteorológicos.

Para cambiar el mapa : haga clic en los botones verdes con una cruz de color negro para hacer un zoom, en el botón verde con un guión para alejar o en las flechas verdes para mapas adyacentes.


METAR-TAF: